Folly Beach, SC (29439)

7:36 AM EST on February 09, 2016 (GMT -0500)
Oak Island | | Change Station
CLOSE
Current Station
Personal Weather Station
Location: Charleston, SC
Elevation: 16 ft
Nearby Weather Stations

Elev 16 ft 32.67 °N, 79.94 °W | Updated 6 minutes ago

Clear
Clear
39.4 °F
Feels Like 36 °F
N
5.1
Wind Variable Wind from WNW

Today
High -- | Low -- °F
--% Chance of Precip.
Yesterday
High -- | Low -- °F
Precip. -- in
Pressure 29.83 in
Visibility 10.0 miles
Clouds Clear
Windchill 36 °F
Dew Point 30 °F
Humidity 69%
Rainfall 0.00 in
Snow Depth Not available.
7:08 AM 5:59 PM
New Moon, 1% visible
METAR KJZI 091215Z AUTO 24007KT 10SM CLR 03/M03 A2983 RMK AO2
Pressure 29.83 in
Visibility 10.0 miles
Clouds Clear
Windchill 36 °F
Dew Point 30 °F
Humidity 69%
Rainfall 0.00 in
Snow Depth Not available.
7:08 AM 5:59 PM
New Moon, 1% visible
METAR KJZI 091215Z AUTO 24007KT 10SM CLR 03/M03 A2983 RMK AO2

10-Day Weather Forecast

Almanac

Astronomy

Feb. 09, 2016 Rise Set
Actual Time
Civil Twilight
Nautical Twilight
Astronomical Twilight
Moon
Length of Visible Light
Length of Day
Tomorrow will be .
, % of the Moon is Illuminated

Today's Extremes

State Highs State Lows

Community

WunderPhotos

Upload Photos

1,891,589 photos uploaded!

WunderBlog® & News

Nearby

Air Quality

  Air Quality AQ Index Pollutant
Not available.

Snow Depth

Station Depth Elevation

Earthquake Activity

City Distance Mag. Time & Date
Minimum magnitude displayed is 2.5.

Coastal Water Temperatures

Place Temperature

Stations

Nearby Weather Stations

Station Location Temp. Windchill Dew Point Humidity Wind Precip. Elev Updated Type
                   

Watches & Warnings

There are currently no watches in effect.